Time;durP1;ratioP1;P1;durP2;ratioP2;P2;SDS_P1;SDS_P2;PMS_P1;PMS_P2;Temp;Humidity;BMP_temperature;BMP_pressure;BME280_temperature;BME280_humidity;BME280_pressure;Samples;Min_cycle;Max_cycle;Signal;HPM_P1;HPM_P2
2023/11/07 00:01:41;;;;;;;1.25;0.40;;;13.40;72.20;;;;;;2129749;59;21852;-65
2023/11/07 00:04:08;;;;;;;0.45;0.20;;;13.40;72.20;;;;;;2331780;57;20974;-65
2023/11/07 00:06:35;;;;;;;1.23;0.40;;;13.40;72.20;;;;;;2331814;58;20974;-65
2023/11/07 00:09:01;;;;;;;1.05;0.40;;;13.40;72.90;;;;;;2335034;58;20993;-65
2023/11/07 00:11:30;;;;;;;3.10;0.45;;;13.40;72.20;;;;;;2333563;58;21094;-65
2023/11/07 00:13:57;;;;;;;1.25;0.32;;;13.40;72.00;;;;;;2130082;59;20997;-64
2023/11/07 00:16:25;;;;;;;1.02;0.40;;;13.40;72.10;;;;;;2332459;58;21014;-66
2023/11/07 00:18:51;;;;;;;2.92;0.60;;;13.40;72.10;;;;;;2331028;58;21097;-64
2023/11/07 00:21:18;;;;;;;0.85;0.30;;;13.40;72.00;;;;;;2332399;58;20993;-65
2023/11/07 00:23:44;;;;;;;1.35;0.40;;;13.50;72.10;;;;;;2330956;58;22023;-65
2023/11/07 00:26:10;;;;;;;1.42;0.50;;;13.40;72.00;;;;;;2130580;59;21302;-64
2023/11/07 00:28:37;;;;;;;0.77;0.37;;;13.40;72.00;;;;;;2331855;58;20982;-64
2023/11/07 00:31:04;;;;;;;1.62;0.50;;;13.40;72.00;;;;;;2130100;59;20994;-64
2023/11/07 00:33:31;;;;;;;1.05;0.40;;;13.40;71.90;;;;;;2332199;58;21005;-64
2023/11/07 00:35:58;;;;;;;0.65;0.30;;;13.40;71.90;;;;;;2130144;59;20985;-64
2023/11/07 00:38:25;;;;;;;0.85;0.20;;;13.40;71.90;;;;;;2332087;58;21026;-65
2023/11/07 00:40:52;;;;;;;1.15;0.40;;;13.40;71.90;;;;;;2331633;58;21046;-64
2023/11/07 00:43:18;;;;;;;0.95;0.30;;;13.40;71.90;;;;;;2129773;58;20978;-64
2023/11/07 00:45:45;;;;;;;3.00;0.47;;;13.40;71.90;;;;;;2130262;59;20974;-64
2023/11/07 00:48:11;;;;;;;1.67;0.30;;;13.50;72.00;;;;;;2332471;58;21029;-65
2023/11/07 00:50:37;;;;;;;1.58;0.40;;;13.40;71.90;;;;;;2332290;58;21450;-65
2023/11/07 00:53:04;;;;;;;1.70;0.55;;;13.40;72.00;;;;;;2336571;58;21955;-63
2023/11/07 00:55:30;;;;;;;0.85;0.30;;;13.40;72.00;;;;;;2134734;59;20977;-65
2023/11/07 00:57:57;;;;;;;0.95;0.40;;;13.40;72.00;;;;;;2135938;59;21063;-65
2023/11/07 01:00:24;;;;;;;1.77;0.47;;;13.40;72.10;;;;;;2133921;59;21050;-65
2023/11/07 01:02:50;;;;;;;1.90;0.50;;;13.40;72.10;;;;;;2335886;58;21502;-64
2023/11/07 01:05:18;;;;;;;2.22;0.43;;;13.40;72.20;;;;;;2130349;58;21050;-65
2023/11/07 01:07:47;;;;;;;2.37;0.50;;;13.40;72.20;;;;;;2334167;58;21062;-64
2023/11/07 01:10:14;;;;;;;0.88;0.35;;;13.40;72.20;;;;;;2334364;58;21062;-65
2023/11/07 01:12:41;;;;;;;1.08;0.37;;;13.40;72.30;;;;;;2130407;58;21014;-64
2023/11/07 01:15:07;;;;;;;1.48;0.40;;;13.40;72.30;;;;;;2331310;58;20973;-64
2023/11/07 01:17:34;;;;;;;2.15;0.50;;;13.50;72.40;;;;;;2332346;58;21010;-65
2023/11/07 01:20:00;;;;;;;1.52;0.52;;;13.50;72.40;;;;;;2330885;58;21115;-64
2023/11/07 01:22:27;;;;;;;0.77;0.30;;;13.50;72.40;;;;;;2130201;59;20962;-64
2023/11/07 01:24:55;;;;;;;1.60;0.60;;;13.50;72.30;;;;;;2129605;59;21046;-65
2023/11/07 01:27:21;;;;;;;1.70;0.40;;;13.50;72.40;;;;;;2332265;58;21771;-64
2023/11/07 01:29:48;;;;;;;0.93;0.32;;;13.50;72.30;;;;;;2134752;59;21081;-65
2023/11/07 01:32:14;;;;;;;0.98;0.30;;;13.50;72.30;;;;;;2335173;58;21516;-65
2023/11/07 01:34:40;;;;;;;1.35;0.40;;;13.50;72.30;;;;;;2330853;58;20950;-65
2023/11/07 01:37:09;;;;;;;1.52;0.50;;;13.60;72.40;;;;;;2129516;59;21007;-65
2023/11/07 01:39:36;;;;;;;1.50;0.47;;;13.60;72.40;;;;;;2332122;58;20970;-63
2023/11/07 01:42:03;;;;;;;1.08;0.40;;;13.60;72.30;;;;;;2129929;59;20985;-64
2023/11/07 01:44:30;;;;;;;2.00;0.32;;;13.60;72.30;;;;;;2137023;59;21017;-64
2023/11/07 01:46:57;;;;;;;1.25;0.40;;;13.60;72.20;;;;;;2124364;59;2277228;-65
2023/11/07 01:49:24;;;;;;;1.17;0.40;;;13.60;72.20;;;;;;2130390;59;21087;-64
2023/11/07 01:51:51;;;;;;;1.65;0.60;;;13.60;72.20;;;;;;2130123;59;20974;-65
2023/11/07 01:54:18;;;;;;;2.30;0.70;;;13.60;72.10;;;;;;2130016;59;20997;-64
2023/11/07 01:56:45;;;;;;;1.85;0.50;;;13.70;72.20;;;;;;2129483;59;21018;-63
2023/11/07 01:59:11;;;;;;;1.52;0.50;;;13.60;72.00;;;;;;2133724;59;21084;-65
2023/11/07 02:01:37;;;;;;;1.55;0.47;;;13.60;72.00;;;;;;2133257;59;20946;-65
2023/11/07 02:04:04;;;;;;;2.20;0.60;;;13.60;72.00;;;;;;2129659;58;20985;-65
2023/11/07 02:06:31;;;;;;;1.35;0.40;;;13.60;72.60;;;;;;2332062;58;21003;-64
2023/11/07 02:08:57;;;;;;;1.15;0.40;;;13.60;71.90;;;;;;2129743;59;25028;-64
2023/11/07 02:11:24;;;;;;;1.35;0.40;;;13.60;71.90;;;;;;2332262;58;20982;-65
2023/11/07 02:13:50;;;;;;;1.12;0.50;;;13.60;71.90;;;;;;2134468;59;22027;-65
2023/11/07 02:16:17;;;;;;;1.27;0.50;;;13.60;71.90;;;;;;2132494;59;21167;-65
2023/11/07 02:18:43;;;;;;;1.17;0.50;;;13.50;71.80;;;;;;2130281;59;21072;-64
2023/11/07 02:21:10;;;;;;;1.50;0.50;;;13.60;71.90;;;;;;2131446;59;21002;-65
2023/11/07 02:23:36;;;;;;;1.80;0.50;;;13.60;71.90;;;;;;2129405;59;21766;-65
2023/11/07 02:26:03;;;;;;;2.70;0.62;;;13.50;71.80;;;;;;2129868;59;20982;-64
2023/11/07 02:28:29;;;;;;;2.40;0.57;;;13.50;71.80;;;;;;2130210;59;21044;-65
2023/11/07 02:30:56;;;;;;;1.55;0.50;;;13.50;71.80;;;;;;2129446;59;20958;-64
2023/11/07 02:33:23;;;;;;;1.27;0.45;;;13.50;71.80;;;;;;2331519;58;21039;-65
2023/11/07 02:35:49;;;;;;;1.52;0.30;;;13.50;71.90;;;;;;2129794;59;21038;-63
2023/11/07 02:38:19;;;;;;;1.00;0.45;;;13.50;71.90;;;;;;2332046;58;20989;-65
2023/11/07 02:40:45;;;;;;;1.27;0.52;;;13.50;71.80;;;;;;2129489;59;20998;-65
2023/11/07 02:43:11;;;;;;;1.25;0.40;;;13.60;71.90;;;;;;2331118;58;21545;-64
2023/11/07 02:45:38;;;;;;;1.12;0.50;;;13.50;71.80;;;;;;2130371;58;21503;-65
2023/11/07 02:48:05;;;;;;;1.20;0.45;;;13.50;71.80;;;;;;2331623;58;20973;-63
2023/11/07 02:50:35;;;;;;;2.35;0.40;;;13.50;71.90;;;;;;2141681;59;21515;-65
2023/11/07 02:53:01;;;;;;;2.58;0.40;;;13.40;71.70;;;;;;2114848;59;21017;-64
2023/11/07 02:55:28;;;;;;;2.35;0.40;;;13.40;71.80;;;;;;2130400;58;21030;-64
2023/11/07 02:57:55;;;;;;;1.62;0.50;;;13.40;71.70;;;;;;2125001;59;21378;-64
2023/11/07 03:00:21;;;;;;;4.53;0.45;;;13.40;71.80;;;;;;2334337;58;21034;-65
2023/11/07 03:02:48;;;;;;;3.05;0.60;;;13.40;71.80;;;;;;2131675;59;21065;-64
2023/11/07 03:05:14;;;;;;;2.95;0.60;;;13.40;71.90;;;;;;2129563;59;21436;-65
2023/11/07 03:07:41;;;;;;;1.58;0.55;;;13.40;71.90;;;;;;2130531;59;21068;-65
2023/11/07 03:10:09;;;;;;;1.55;0.43;;;13.40;71.80;;;;;;2331438;58;20953;-65
2023/11/07 03:12:49;;;;;;;3.28;0.70;;;13.40;71.80;;;;;;2331473;58;21017;-65
2023/11/07 03:15:16;;;;;;;2.28;0.60;;;13.40;71.30;;;;;;2334149;58;21057;-65
2023/11/07 03:17:42;;;;;;;1.62;0.60;;;13.30;71.80;;;;;;2133698;59;20982;-64
2023/11/07 03:20:09;;;;;;;1.80;0.43;;;13.30;71.80;;;;;;2331529;58;20970;-65
2023/11/07 03:22:37;;;;;;;1.65;0.50;;;13.30;71.70;;;;;;2337278;59;20903;-65
2023/11/07 03:25:04;;;;;;;3.30;0.57;;;13.30;71.70;;;;;;2333986;58;20998;-65
2023/11/07 03:27:31;;;;;;;1.55;0.60;;;13.30;71.70;;;;;;2336089;58;20994;-64
2023/11/07 03:29:58;;;;;;;1.62;0.60;;;13.30;71.70;;;;;;2337087;58;21830;-64
2023/11/07 03:35:57;;;;;;;1.98;0.82;;;13.30;70.90;;;;;;2333147;58;21047;-63
2023/11/07 03:38:23;;;;;;;1.65;0.50;;;13.30;71.60;;;;;;2134420;59;21017;-63
2023/11/07 03:40:50;;;;;;;1.17;0.45;;;13.30;71.80;;;;;;2129190;58;21590;-64
2023/11/07 03:43:17;;;;;;;3.05;0.60;;;13.30;71.70;;;;;;2331340;58;20993;-63
2023/11/07 03:45:43;;;;;;;1.45;0.47;;;13.30;71.80;;;;;;2331232;58;20997;-63
2023/11/07 03:48:10;;;;;;;1.98;0.62;;;13.20;71.70;;;;;;2135930;59;20978;-64
2023/11/07 03:50:37;;;;;;;3.10;0.50;;;13.20;72.40;;;;;;2129765;59;21049;-63
2023/11/07 03:53:03;;;;;;;1.15;0.43;;;13.20;71.70;;;;;;2129831;59;21034;-64
2023/11/07 03:55:35;;;;;;;2.00;0.60;;;13.20;71.70;;;;;;2129926;58;20970;-65
2023/11/07 03:58:01;;;;;;;2.00;0.70;;;13.20;71.70;;;;;;2129843;59;20997;-64
2023/11/07 04:00:28;;;;;;;1.90;0.45;;;13.30;71.80;;;;;;2332112;58;20962;-64
2023/11/07 04:02:54;;;;;;;2.10;0.70;;;13.20;71.60;;;;;;2332016;58;20966;-64
2023/11/07 04:05:22;;;;;;;1.65;0.50;;;13.20;71.60;;;;;;2130379;59;21026;-63
2023/11/07 04:07:50;;;;;;;1.98;0.50;;;13.20;71.70;;;;;;2332218;58;21009;-64
2023/11/07 04:10:17;;;;;;;1.40;0.52;;;13.20;72.00;;;;;;2331606;58;20974;-64
2023/11/07 04:12:44;;;;;;;1.55;0.52;;;13.20;71.70;;;;;;2130710;59;21005;-64
2023/11/07 04:15:10;;;;;;;1.35;0.50;;;13.20;71.70;;;;;;2332297;58;20982;-64
2023/11/07 04:17:36;;;;;;;1.60;0.55;;;13.20;71.70;;;;;;2136539;58;21105;-63
2023/11/07 04:20:03;;;;;;;2.58;0.60;;;13.10;71.50;;;;;;2132018;58;20994;-64
2023/11/07 04:22:29;;;;;;;1.90;0.50;;;13.10;71.50;;;;;;2129786;59;20974;-64
2023/11/07 04:24:57;;;;;;;1.48;0.60;;;13.10;71.50;;;;;;2332312;58;21046;-64
2023/11/07 04:30:52;;;;;;;1.10;0.30;;;13.10;70.60;;;;;;2332049;58;21007;-64
2023/11/07 04:33:19;;;;;;;1.40;0.50;;;13.10;71.60;;;;;;2130208;58;20982;-64
2023/11/07 04:35:46;;;;;;;1.00;0.37;;;13.10;71.60;;;;;;2130381;59;20989;-65
2023/11/07 04:38:13;;;;;;;1.52;0.60;;;13.10;71.60;;;;;;2331519;58;20982;-63
2023/11/07 04:40:42;;;;;;;1.08;0.43;;;13.10;71.60;;;;;;2331721;58;21777;-64
2023/11/07 04:43:43;;;;;;;1.60;0.47;;;13.10;71.60;;;;;;2130140;59;21627;-64
2023/11/07 04:46:13;;;;;;;2.17;0.50;;;13.00;70.70;;;;;;2130291;58;21583;-64
2023/11/07 04:48:39;;;;;;;3.33;0.55;;;13.10;71.50;;;;;;2338953;58;20986;-64
2023/11/07 04:51:06;;;;;;;1.62;0.45;;;13.10;71.60;;;;;;2331763;58;20981;-64
2023/11/07 04:53:33;;;;;;;2.00;0.40;;;13.10;71.70;;;;;;2331545;58;20997;-64
2023/11/07 04:56:00;;;;;;;1.77;0.60;;;13.10;71.80;;;;;;2131887;59;21558;-64
2023/11/07 04:58:26;;;;;;;1.35;0.57;;;13.10;71.70;;;;;;2336347;58;21834;-64
2023/11/07 05:00:56;;;;;;;1.42;0.50;;;13.20;71.90;;;;;;2130185;58;20969;-64
2023/11/07 05:03:25;;;;;;;2.37;0.65;;;13.10;71.80;;;;;;2129806;59;20973;-64
2023/11/07 05:05:58;;;;;;;1.37;0.50;;;13.10;71.80;;;;;;2136591;59;21342;-64
2023/11/07 05:08:26;;;;;;;2.33;0.70;;;13.10;71.70;;;;;;2333460;58;20993;-64
2023/11/07 05:10:52;;;;;;;1.58;0.50;;;13.20;71.90;;;;;;2332118;58;20970;-63
2023/11/07 05:13:21;;;;;;;2.70;0.60;;;13.20;71.80;;;;;;2332058;58;21029;-64
2023/11/07 05:15:48;;;;;;;2.40;0.60;;;13.20;71.70;;;;;;2331738;58;21807;-63
2023/11/07 05:18:15;;;;;;;4.28;0.50;;;13.20;71.80;;;;;;2130030;58;21046;-64
2023/11/07 05:20:44;;;;;;;2.08;0.60;;;13.20;71.80;;;;;;2128537;58;20942;-63
2023/11/07 05:23:10;;;;;;;2.05;0.70;;;13.20;71.80;;;;;;2128617;59;20981;-64
2023/11/07 05:25:37;;;;;;;1.62;0.52;;;13.30;71.90;;;;;;2330969;58;21033;-63
2023/11/07 05:28:04;;;;;;;3.85;1.02;;;13.20;71.70;;;;;;2129817;59;20974;-64
2023/11/07 05:30:34;;;;;;;1.25;0.50;;;13.20;71.70;;;;;;2331180;58;21002;-65
2023/11/07 05:33:01;;;;;;;1.60;0.50;;;13.30;71.70;;;;;;2129392;59;20998;-64
2023/11/07 05:35:27;;;;;;;1.75;0.60;;;13.30;71.70;;;;;;2129677;58;21073;-63
2023/11/07 05:37:54;;;;;;;2.97;0.75;;;13.30;71.60;;;;;;2331881;58;21196;-65
2023/11/07 05:40:23;;;;;;;2.83;0.70;;;13.30;71.60;;;;;;2331564;58;21815;-63
2023/11/07 05:42:52;;;;;;;1.87;0.70;;;13.30;71.60;;;;;;2330693;58;21514;-65
2023/11/07 05:45:18;;;;;;;2.12;0.65;;;13.30;71.50;;;;;;2130154;59;20973;-64
2023/11/07 05:47:44;;;;;;;1.52;0.50;;;13.30;71.50;;;;;;2134073;58;21001;-64
2023/11/07 05:50:13;;;;;;;1.45;0.52;;;13.30;71.50;;;;;;2336374;59;20993;-63
2023/11/07 05:52:40;;;;;;;1.55;0.60;;;13.30;71.30;;;;;;2131629;58;21093;-63
2023/11/07 05:55:07;;;;;;;0.77;0.40;;;13.30;71.40;;;;;;2129874;59;21050;-64
2023/11/07 05:57:35;;;;;;;1.98;0.60;;;13.30;71.30;;;;;;2128952;58;21058;-64
2023/11/07 06:00:07;;;;;;;1.17;0.50;;;13.30;71.40;;;;;;2331122;58;21063;-64
2023/11/07 06:02:35;;;;;;;1.42;0.50;;;13.30;71.30;;;;;;2137065;59;21542;-63
2023/11/07 06:05:02;;;;;;;1.83;0.52;;;13.30;71.30;;;;;;2332022;58;21041;-63
2023/11/07 06:07:28;;;;;;;1.75;0.62;;;13.30;71.30;;;;;;2335162;58;20942;-63
2023/11/07 06:09:55;;;;;;;1.25;0.40;;;13.30;71.30;;;;;;2331205;58;21415;-63
2023/11/07 06:12:21;;;;;;;1.35;0.50;;;13.30;71.20;;;;;;2129773;59;20994;-63
2023/11/07 06:14:47;;;;;;;1.67;0.57;;;13.30;71.20;;;;;;2331663;58;21026;-64
2023/11/07 06:17:17;;;;;;;2.75;0.77;;;13.30;71.20;;;;;;2129859;59;20966;-64
2023/11/07 06:19:44;;;;;;;2.40;0.62;;;13.30;71.20;;;;;;2336909;58;21048;-64
2023/11/07 06:22:10;;;;;;;3.50;0.62;;;13.30;71.20;;;;;;2130730;58;20985;-63
2023/11/07 06:24:36;;;;;;;1.60;0.45;;;13.20;71.00;;;;;;2129122;59;20978;-65
2023/11/07 06:27:03;;;;;;;1.90;0.57;;;13.30;71.20;;;;;;2130134;59;21056;-65
2023/11/07 06:29:30;;;;;;;1.50;0.50;;;13.30;71.20;;;;;;2130151;58;20985;-64
2023/11/07 06:31:59;;;;;;;2.03;0.50;;;13.20;71.00;;;;;;2119966;60;21025;-64
2023/11/07 06:34:26;;;;;;;2.35;0.70;;;13.20;71.00;;;;;;2331386;58;21539;-65
2023/11/07 06:36:53;;;;;;;2.08;0.60;;;13.20;71.00;;;;;;2331027;58;21753;-64
2023/11/07 06:39:23;;;;;;;1.70;0.80;;;13.20;71.00;;;;;;2332031;58;21021;-64
2023/11/07 06:41:51;;;;;;;1.30;0.50;;;13.20;71.10;;;;;;2132290;59;21058;-65
2023/11/07 06:44:17;;;;;;;1.70;0.55;;;13.20;71.20;;;;;;2335781;59;21046;-64
2023/11/07 06:46:44;;;;;;;1.83;0.55;;;13.20;71.30;;;;;;2129979;59;21042;-64
2023/11/07 06:49:10;;;;;;;0.93;0.40;;;13.20;71.30;;;;;;2332898;58;20993;-63
2023/11/07 06:51:36;;;;;;;1.45;0.50;;;13.20;71.30;;;;;;2132668;59;21006;-63
2023/11/07 06:54:04;;;;;;;1.73;0.70;;;13.20;71.30;;;;;;2130194;59;20943;-64
2023/11/07 06:56:31;;;;;;;1.10;0.50;;;13.20;71.30;;;;;;2132032;58;21018;-64
2023/11/07 06:58:59;;;;;;;1.48;0.55;;;13.20;71.40;;;;;;2330428;58;21015;-64
2023/11/07 07:01:30;;;;;;;1.90;0.52;;;13.20;71.40;;;;;;2128394;58;21082;-64
2023/11/07 07:03:56;;;;;;;1.43;0.53;;;13.20;71.10;;;;;;2335012;58;21915;-65
2023/11/07 07:06:23;;;;;;;1.37;0.50;;;13.20;71.40;;;;;;2130712;59;21022;-64
2023/11/07 07:08:50;;;;;;;1.87;0.50;;;13.20;71.50;;;;;;2331409;58;21598;-64
2023/11/07 07:11:16;;;;;;;1.45;0.60;;;13.20;71.50;;;;;;2130404;58;20994;-63
2023/11/07 07:13:52;;;;;;;2.45;0.40;;;13.30;71.60;;;;;;2130257;59;20966;-63
2023/11/07 07:16:19;;;;;;;2.67;0.70;;;13.30;71.20;;;;;;2330882;58;21882;-64
2023/11/07 07:18:46;;;;;;;1.05;0.47;;;13.30;71.60;;;;;;2129137;59;21362;-64
2023/11/07 07:21:13;;;;;;;1.83;0.60;;;13.30;71.70;;;;;;2133729;59;21066;-64
2023/11/07 07:23:42;;;;;;;1.10;0.40;;;13.30;71.70;;;;;;2131428;58;20981;-63
2023/11/07 07:26:12;;;;;;;2.03;0.65;;;13.30;71.70;;;;;;2330989;58;20966;-64
2023/11/07 07:28:39;;;;;;;1.80;0.57;;;13.40;71.90;;;;;;2335224;59;21013;-64
2023/11/07 07:31:08;;;;;;;1.17;0.50;;;13.40;71.90;;;;;;2331801;58;21035;-64
2023/11/07 07:33:34;;;;;;;1.12;0.50;;;13.40;71.90;;;;;;2330478;58;20977;-63
2023/11/07 07:36:03;;;;;;;2.80;0.50;;;13.40;71.90;;;;;;2130163;59;20989;-64
2023/11/07 07:38:35;;;;;;;1.20;0.47;;;13.40;71.90;;;;;;2129736;59;21017;-65
2023/11/07 07:41:01;;;;;;;1.95;0.40;;;13.50;71.70;;;;;;2331344;58;21396;-63
2023/11/07 07:44:00;;;;;;;2.10;0.50;;;13.50;71.90;;;;;;2331588;58;20990;-63
2023/11/07 07:46:31;;;;;;;1.45;0.50;;;13.50;70.90;;;;;;2331748;58;20993;-64
2023/11/07 07:48:57;;;;;;;1.95;0.70;;;13.50;71.80;;;;;;2135626;59;21981;-64
2023/11/07 07:51:27;;;;;;;1.48;0.50;;;13.50;71.90;;;;;;2132307;59;20974;-65
2023/11/07 07:53:54;;;;;;;1.25;0.50;;;13.50;71.90;;;;;;2331154;58;21061;-64
2023/11/07 07:56:21;;;;;;;1.85;0.57;;;13.60;72.00;;;;;;2129932;59;21741;-63
2023/11/07 07:58:47;;;;;;;2.10;0.65;;;13.60;72.00;;;;;;2130193;59;20985;-65
2023/11/07 08:01:18;;;;;;;1.30;0.60;;;13.60;72.00;;;;;;2335721;58;21007;-64
2023/11/07 08:03:45;;;;;;;1.83;0.60;;;13.60;71.90;;;;;;2333307;58;20966;-65
2023/11/07 08:06:12;;;;;;;2.12;0.70;;;13.70;72.00;;;;;;2130706;59;21002;-64
2023/11/07 08:08:38;;;;;;;1.58;0.52;;;13.70;72.00;;;;;;2129774;59;21007;-65
2023/11/07 08:11:07;;;;;;;1.73;0.60;;;13.70;72.00;;;;;;2332524;58;20951;-65
2023/11/07 08:13:33;;;;;;;2.47;0.60;;;13.70;72.00;;;;;;2329274;58;20962;-64
2023/11/07 08:16:06;;;;;;;1.62;0.60;;;13.70;71.90;;;;;;2132250;59;21005;-64
2023/11/07 08:22:13;;;;;;;2.05;0.50;;;13.80;71.10;;;;;;2330301;58;21005;-64
2023/11/07 08:24:39;;;;;;;1.98;0.50;;;13.80;72.10;;;;;;2128784;59;20958;-63
2023/11/07 08:27:06;;;;;;;1.90;0.57;;;13.80;72.00;;;;;;2331665;58;20962;-65
2023/11/07 08:29:33;;;;;;;1.10;0.57;;;13.90;72.10;;;;;;2130127;59;21271;-64
2023/11/07 08:31:59;;;;;;;1.20;0.43;;;13.90;72.00;;;;;;2132101;59;21404;-65
2023/11/07 08:34:32;;;;;;;1.30;0.50;;;13.90;71.90;;;;;;2336722;58;20994;-63
2023/11/07 08:36:58;;;;;;;1.65;0.50;;;14.00;72.10;;;;;;2130050;59;21052;-64
2023/11/07 08:39:27;;;;;;;2.00;0.55;;;14.00;72.00;;;;;;2331802;58;21034;-65
2023/11/07 08:41:54;;;;;;;1.33;0.47;;;14.00;72.00;;;;;;2136640;59;21377;-63
2023/11/07 08:44:21;;;;;;;3.67;0.50;;;14.10;72.10;;;;;;2130704;58;20982;-64
2023/11/07 08:46:48;;;;;;;1.62;0.60;;;14.10;72.20;;;;;;2130520;58;21020;-63
2023/11/07 08:49:16;;;;;;;1.73;0.65;;;14.10;72.10;;;;;;2332042;58;21019;-64
2023/11/07 08:51:50;;;;;;;2.78;0.55;;;14.20;72.20;;;;;;2129854;59;21083;-65
2023/11/07 08:54:18;;;;;;;;;;;14.20;72.10;;;;;;2336055;58;20950;-64
2023/11/07 08:56:49;;;;;;;1.80;0.50;;;14.30;70.50;;;;;;2330695;58;20456;-64
2023/11/07 08:59:16;;;;;;;1.35;0.50;;;14.30;72.10;;;;;;2130816;59;21015;-64
2023/11/07 09:01:42;;;;;;;1.77;0.50;;;14.30;72.00;;;;;;2130669;58;21157;-64
2023/11/07 09:04:09;;;;;;;2.17;0.60;;;14.40;72.10;;;;;;2332462;58;20997;-64
2023/11/07 09:06:39;;;;;;;2.20;0.80;;;14.30;71.90;;;;;;2331602;58;21475;-64
2023/11/07 09:09:07;;;;;;;3.22;1.30;;;14.40;71.90;;;;;;2337074;58;21041;-65
2023/11/07 09:11:34;;;;;;;2.05;0.80;;;14.30;71.80;;;;;;2131107;59;20966;-63
2023/11/07 09:14:02;;;;;;;3.67;0.80;;;14.40;71.90;;;;;;2331981;58;20989;-65
2023/11/07 09:16:56;;;;;;;2.17;0.70;;;14.40;71.90;;;;;;2130610;58;20978;-63
2023/11/07 09:19:25;;;;;;;3.65;0.70;;;14.40;70.90;;;;;;2137242;59;21053;-64
2023/11/07 09:21:52;;;;;;;1.58;0.50;;;14.40;71.90;;;;;;2131360;58;21461;-63
2023/11/07 09:24:18;;;;;;;1.10;0.37;;;14.40;71.90;;;;;;2129769;58;20989;-64
2023/11/07 09:26:45;;;;;;;1.35;0.60;;;14.50;71.90;;;;;;2331875;58;21517;-65
2023/11/07 09:29:11;;;;;;;3.05;0.60;;;14.40;71.80;;;;;;2337369;59;21014;-64
2023/11/07 09:31:38;;;;;;;1.27;0.50;;;14.50;72.00;;;;;;2137549;59;21798;-65
2023/11/07 09:34:08;;;;;;;2.00;0.77;;;14.40;72.00;;;;;;2331798;58;21051;-64
2023/11/07 09:36:38;;;;;;;3.12;0.70;;;14.50;72.10;;;;;;2130666;59;20977;-64
2023/11/07 09:39:06;;;;;;;2.05;0.65;;;14.50;72.00;;;;;;2332487;58;20985;-63
2023/11/07 09:41:32;;;;;;;2.53;0.80;;;14.50;71.90;;;;;;2332248;58;21275;-63
2023/11/07 09:44:00;;;;;;;1.80;0.70;;;14.50;71.90;;;;;;2331964;58;20965;-64
2023/11/07 09:46:27;;;;;;;2.72;0.70;;;14.50;71.70;;;;;;2332269;58;20981;-64
2023/11/07 09:48:53;;;;;;;1.77;0.50;;;14.50;71.70;;;;;;2129578;59;21040;-64
2023/11/07 09:51:21;;;;;;;1.58;0.45;;;14.60;71.70;;;;;;2337869;58;21474;-65
2023/11/07 09:53:49;;;;;;;1.50;0.50;;;14.50;71.50;;;;;;2331928;58;21098;-64
2023/11/07 09:56:18;;;;;;;1.95;0.65;;;14.60;71.60;;;;;;2130742;59;20978;-64
2023/11/07 09:58:48;;;;;;;1.85;0.62;;;14.60;71.50;;;;;;2331664;58;21800;-64
2023/11/07 10:01:14;;;;;;;3.12;0.70;;;14.60;71.70;;;;;;2332227;58;20970;-64
2023/11/07 10:04:15;;;;;;;2.12;0.73;;;14.60;71.80;;;;;;2334771;58;21022;-63
2023/11/07 10:06:42;;;;;;;1.30;0.50;;;14.60;70.80;;;;;;2132247;59;21070;-65
2023/11/07 10:09:14;;;;;;;1.12;0.50;;;14.60;71.70;;;;;;2332351;58;21022;-64
2023/11/07 10:11:44;;;;;;;1.60;0.70;;;14.70;71.90;;;;;;2130669;59;21005;-65
2023/11/07 10:14:11;;;;;;;1.60;0.60;;;14.60;71.60;;;;;;2131124;58;21136;-65
2023/11/07 10:16:41;;;;;;;1.70;0.62;;;14.70;71.90;;;;;;2331798;58;21043;-63
2023/11/07 10:19:16;;;;;;;1.75;0.60;;;14.70;71.80;;;;;;2331563;57;21121;-65
2023/11/07 10:22:02;;;;;;;2.15;0.60;;;14.70;71.50;;;;;;2130492;59;21029;-63
2023/11/07 10:24:42;;;;;;;1.98;0.60;;;14.70;70.80;;;;;;2130048;58;21485;-65
2023/11/07 10:27:10;;;;;;;1.52;0.55;;;14.70;70.90;;;;;;2131149;59;21455;-66
2023/11/07 10:29:51;;;;;;;1.48;0.50;;;14.80;71.80;;;;;;2130156;59;21045;-63
2023/11/07 10:32:24;;;;;;;1.10;0.45;;;14.80;70.80;;;;;;2129982;59;21485;-65
2023/11/07 10:35:01;;;;;;;1.87;0.60;;;14.80;71.40;;;;;;2331755;58;21043;-64
2023/11/07 10:37:37;;;;;;;1.50;0.50;;;14.80;71.00;;;;;;2130994;59;21078;-64
2023/11/07 10:40:06;;;;;;;1.75;0.60;;;14.80;71.10;;;;;;2130306;59;21020;-67
2023/11/07 10:42:34;;;;;;;1.87;0.68;;;14.80;71.20;;;;;;2130683;58;20998;-66
2023/11/07 10:45:04;;;;;;;2.20;0.60;;;14.80;71.40;;;;;;2331494;58;20986;-66
2023/11/07 10:47:35;;;;;;;1.40;0.50;;;14.80;71.40;;;;;;2130629;59;21042;-66
2023/11/07 10:50:08;;;;;;;2.15;0.62;;;14.80;71.40;;;;;;2332238;58;20986;-66
2023/11/07 10:52:38;;;;;;;1.52;0.60;;;14.90;71.40;;;;;;2332247;58;20962;-66
2023/11/07 10:55:04;;;;;;;1.20;0.57;;;14.90;71.50;;;;;;2332349;58;20985;-64
2023/11/07 10:57:33;;;;;;;1.62;0.50;;;14.90;71.80;;;;;;2130397;59;21046;-64
2023/11/07 11:00:12;;;;;;;1.92;0.62;;;14.90;71.70;;;;;;2119750;60;21038;-63
2023/11/07 11:02:40;;;;;;;1.45;0.50;;;14.90;71.70;;;;;;2130212;59;21486;-64
2023/11/07 11:05:07;;;;;;;2.62;0.80;;;14.90;71.70;;;;;;2130470;59;21092;-65
2023/11/07 11:07:39;;;;;;;1.20;0.50;;;14.90;71.70;;;;;;2331865;58;21773;-65
2023/11/07 11:10:08;;;;;;;2.37;0.75;;;15.00;71.70;;;;;;2130663;59;21110;-64
2023/11/07 11:12:36;;;;;;;1.45;0.60;;;14.90;71.60;;;;;;2130848;59;21013;-64
2023/11/07 11:15:04;;;;;;;1.95;0.50;;;15.10;71.80;;;;;;2135433;58;21040;-65
2023/11/07 11:17:33;;;;;;;2.15;0.80;;;15.00;71.70;;;;;;2120919;58;21003;-63
2023/11/07 11:20:10;;;;;;;2.10;0.75;;;15.00;71.60;;;;;;2130244;59;20938;-64
2023/11/07 11:22:47;;;;;;;3.35;0.60;;;15.00;71.30;;;;;;2129432;59;20989;-63
2023/11/07 11:28:35;;;;;;;3.92;0.40;;;15.00;71.10;;;;;;2332155;58;20990;-64
2023/11/07 11:31:03;;;;;;;3.33;0.62;;;15.10;70.10;;;;;;2135363;58;21025;-64
2023/11/07 11:33:29;;;;;;;0.90;0.37;;;15.10;71.50;;;;;;2132544;59;20994;-64
2023/11/07 11:35:57;;;;;;;1.12;0.32;;;15.10;71.30;;;;;;2331287;58;20999;-64
2023/11/07 11:38:38;;;;;;;1.73;0.60;;;15.10;71.30;;;;;;2130442;59;20982;-64
2023/11/07 11:41:06;;;;;;;2.87;1.27;;;15.10;70.50;;;;;;2329741;58;21018;-63
2023/11/07 11:43:34;;;;;;;2.10;0.82;;;15.10;72.10;;;;;;2129691;59;21440;-63
2023/11/07 11:47:52;;;;;;;1.33;0.60;;;15.10;71.40;;;;;;2330445;58;21089;-64
2023/11/07 11:50:19;;;;;;;1.62;0.60;;;15.10;69.70;;;;;;2126717;58;21027;-65
2023/11/07 11:52:45;;;;;;;2.12;0.50;;;15.10;71.40;;;;;;2130294;59;21057;-66
2023/11/07 11:55:13;;;;;;;3.78;0.95;;;15.10;71.30;;;;;;2130817;59;21058;-66
2023/11/07 12:04:28;;;;;;;1.23;0.50;;;15.10;71.20;;;;;;2130046;59;21018;-66
2023/11/07 12:08:48;;;;;;;1.02;0.43;;;15.10;69.80;;;;;;2325148;58;21503;-66
2023/11/07 12:11:16;;;;;;;1.02;0.30;;;15.10;69.60;;;;;;2331638;58;21057;-66
2023/11/07 12:13:43;;;;;;;1.12;0.40;;;15.10;71.10;;;;;;2129872;59;20970;-66
2023/11/07 12:16:18;;;;;;;1.37;0.60;;;15.00;70.90;;;;;;2130299;58;20977;-65
2023/11/07 12:18:46;;;;;;;1.05;0.50;;;15.00;70.60;;;;;;2136672;59;21029;-65
2023/11/07 12:21:28;;;;;;;1.15;0.43;;;14.90;70.90;;;;;;2333608;58;21893;-65
2023/11/07 12:23:56;;;;;;;1.80;0.50;;;14.90;70.00;;;;;;2129465;59;21447;-66
2023/11/07 12:26:40;;;;;;;1.12;0.43;;;14.80;70.70;;;;;;2332302;58;21264;-65
2023/11/07 12:29:06;;;;;;;1.17;0.50;;;14.80;70.00;;;;;;2332357;58;21523;-66
2023/11/07 12:31:36;;;;;;;1.83;0.40;;;14.80;70.70;;;;;;2332355;58;21035;-65
2023/11/07 12:34:04;;;;;;;0.80;0.40;;;14.80;70.30;;;;;;2130935;58;20953;-65
2023/11/07 12:36:30;;;;;;;1.02;0.40;;;14.70;70.40;;;;;;2130811;58;21001;-65
2023/11/07 12:38:57;;;;;;;0.93;0.40;;;14.70;70.50;;;;;;2137186;58;21006;-66
2023/11/07 12:41:24;;;;;;;0.93;0.40;;;14.70;70.50;;;;;;2131243;59;20970;-65
2023/11/07 12:43:50;;;;;;;0.80;0.30;;;14.60;70.40;;;;;;2129768;59;21059;-66
2023/11/07 12:46:17;;;;;;;1.55;0.70;;;14.60;70.50;;;;;;2331565;58;21957;-66
2023/11/07 12:48:57;;;;;;;1.67;0.82;;;14.60;70.60;;;;;;2131825;58;21086;-65
2023/11/07 12:51:24;;;;;;;3.12;1.60;;;14.60;70.10;;;;;;2331003;58;20949;-66
2023/11/07 12:53:51;;;;;;;2.78;1.20;;;14.50;70.70;;;;;;2331961;58;21110;-65
2023/11/07 12:56:21;;;;;;;2.50;1.25;;;14.50;70.70;;;;;;2130812;58;21000;-65
2023/11/07 12:58:48;;;;;;;2.33;1.10;;;14.50;70.70;;;;;;2130510;58;20985;-66
2023/11/07 13:01:15;;;;;;;1.87;0.90;;;14.50;70.80;;;;;;2332177;58;20970;-65
2023/11/07 13:03:41;;;;;;;2.50;1.30;;;14.50;70.80;;;;;;2332380;58;21940;-66
2023/11/07 13:06:13;;;;;;;2.15;0.88;;;14.50;70.90;;;;;;2130392;58;21041;-64
2023/11/07 13:08:46;;;;;;;2.12;0.80;;;14.50;70.90;;;;;;2317837;59;21244;-66
2023/11/07 13:11:19;;;;;;;1.80;0.80;;;14.40;70.80;;;;;;2130244;58;21185;-65
2023/11/07 13:13:46;;;;;;;1.37;0.70;;;14.50;70.70;;;;;;2129758;59;21006;-66
2023/11/07 13:16:14;;;;;;;1.60;0.70;;;14.40;71.00;;;;;;2330344;58;21494;-66
2023/11/07 13:18:48;;;;;;;1.10;0.43;;;14.40;71.20;;;;;;2130140;59;21797;-66